Russell, Minnesota
Current Conditions -  °F | °C
As of 8:55 AM on Sunday 23 Nov 2014 (Local Time) from KMML Reporting Station
Overcast Overcast  
Wind Chill: 33°   Ceiling: 9000
Heat Index: 41°   Visibility: 10mi
Dew Point: 34°   Wind: 15mph
Humidity: 76%   Direction: 320°NW
Pressure: 29.47"   Gusts: NA
Location:  44.32°N, 95.95°W
Report Text: KMML 231455Z AUTO 32013KT 10SM OVC090 05/01 A2947 RMK AO1 52010
Loading
Personal Weather Stations






























Interactive Weather Map New forecast layout! Learn more

10-Day Weather Forecast

Advertisements
Track Severe Weather on mobile